Franconia, Virginia
Current Conditions -  °F | °C
As of 10:58 AM on Sunday 25 Jan 2015 (Local Time) from KDAA Reporting Station
Overcast Overcast  
Wind Chill: 45°   Ceiling: 13000
Heat Index: 47°   Visibility: 10mi
Dew Point: 29°   Wind: 5mph
Humidity: 51%   Direction: NA
Pressure: 29.86"   Gusts: NA
Location:  38.78°N, 77.15°W
Report Text: KDAA 251558Z AUTO VRB04KT 10SM BKN130 OVC150 08/M01 A2986 RMK AO2 SLP115 T00821015
Loading
Personal Weather Stations






























Interactive Weather Map New forecast layout! Learn more

10-Day Weather Forecast

Advertisements
Track Severe Weather on mobile